Terminal Aerodrome Forecast
Issued by NWS

Home | Current Version | Previous Version | Text Only | Print | Product List | Glossary Off
Versions: 1 2 3 4 5 6 7 8 9 10 11 12 13 14 15 16 17

000
FTUS41 KCLE 161739
TAFFDY
TAF
KFDY 161739Z 1618/1718 18006KT P6SM SCT035 BKN045
     FM162200 09005KT P6SM BKN200
     FM171000 15005KT P6SM -SHRA SCT040 OVC070 PROB30 1711/1713 4SM
      SHRA BR BKN030
     FM171400 19010KT P6SM VCSH OVC045=

USA.gov is the U.S. government's official web portal to all federal, state and local government web resources and services.